sensor_id;sensor_type;location;lat;lon;timestamp;P1;durP1;ratioP1;P2;durP2;ratioP2
29516;SDS011;40993;50.594;8.664;2023-11-22T00:01:22;20.08;;;9.55;;
29516;SDS011;40993;50.594;8.664;2023-11-22T00:03:51;17.98;;;9.65;;
29516;SDS011;40993;50.594;8.664;2023-11-22T00:06:22;20.75;;;10.90;;
29516;SDS011;40993;50.594;8.664;2023-11-22T00:08:49;21.23;;;10.93;;
29516;SDS011;40993;50.594;8.664;2023-11-22T00:11:18;18.90;;;9.93;;
29516;SDS011;40993;50.594;8.664;2023-11-22T00:13:46;21.48;;;10.57;;
29516;SDS011;40993;50.594;8.664;2023-11-22T00:16:15;21.02;;;10.65;;
29516;SDS011;40993;50.594;8.664;2023-11-22T00:18:43;18.42;;;10.55;;
29516;SDS011;40993;50.594;8.664;2023-11-22T00:21:10;21.13;;;10.48;;
29516;SDS011;40993;50.594;8.664;2023-11-22T00:23:40;23.52;;;10.25;;
29516;SDS011;40993;50.594;8.664;2023-11-22T00:26:07;19.77;;;10.15;;
29516;SDS011;40993;50.594;8.664;2023-11-22T00:28:35;21.45;;;10.73;;
29516;SDS011;40993;50.594;8.664;2023-11-22T00:31:03;19.33;;;10.68;;
29516;SDS011;40993;50.594;8.664;2023-11-22T00:33:31;19.38;;;10.23;;
29516;SDS011;40993;50.594;8.664;2023-11-22T00:35:58;20.23;;;10.00;;
29516;SDS011;40993;50.594;8.664;2023-11-22T00:38:26;21.13;;;10.82;;
29516;SDS011;40993;50.594;8.664;2023-11-22T00:40:55;18.05;;;10.20;;
29516;SDS011;40993;50.594;8.664;2023-11-22T00:43:23;18.20;;;9.65;;
29516;SDS011;40993;50.594;8.664;2023-11-22T00:45:51;20.90;;;9.98;;
29516;SDS011;40993;50.594;8.664;2023-11-22T00:48:19;22.27;;;10.35;;
29516;SDS011;40993;50.594;8.664;2023-11-22T00:50:47;17.52;;;9.43;;
29516;SDS011;40993;50.594;8.664;2023-11-22T00:53:14;23.88;;;9.43;;
29516;SDS011;40993;50.594;8.664;2023-11-22T00:55:44;17.95;;;9.23;;
29516;SDS011;40993;50.594;8.664;2023-11-22T00:58:13;19.13;;;9.40;;
29516;SDS011;40993;50.594;8.664;2023-11-22T01:00:41;20.40;;;9.75;;
29516;SDS011;40993;50.594;8.664;2023-11-22T01:03:09;19.35;;;9.02;;
29516;SDS011;40993;50.594;8.664;2023-11-22T01:05:39;21.85;;;9.23;;
29516;SDS011;40993;50.594;8.664;2023-11-22T01:08:08;23.63;;;9.70;;
29516;SDS011;40993;50.594;8.664;2023-11-22T01:10:36;17.42;;;8.68;;
29516;SDS011;40993;50.594;8.664;2023-11-22T01:13:04;20.95;;;9.52;;
29516;SDS011;40993;50.594;8.664;2023-11-22T01:15:33;17.13;;;8.50;;
29516;SDS011;40993;50.594;8.664;2023-11-22T01:18:01;18.95;;;9.00;;
29516;SDS011;40993;50.594;8.664;2023-11-22T01:20:29;18.30;;;8.50;;
29516;SDS011;40993;50.594;8.664;2023-11-22T01:22:57;17.67;;;9.32;;
29516;SDS011;40993;50.594;8.664;2023-11-22T01:25:25;18.77;;;9.13;;
29516;SDS011;40993;50.594;8.664;2023-11-22T01:27:54;17.00;;;9.05;;
29516;SDS011;40993;50.594;8.664;2023-11-22T01:30:22;19.90;;;9.93;;
29516;SDS011;40993;50.594;8.664;2023-11-22T01:32:51;16.88;;;9.05;;
29516;SDS011;40993;50.594;8.664;2023-11-22T01:35:19;16.38;;;8.98;;
29516;SDS011;40993;50.594;8.664;2023-11-22T01:37:47;16.27;;;8.25;;
29516;SDS011;40993;50.594;8.664;2023-11-22T01:40:15;18.20;;;9.52;;
29516;SDS011;40993;50.594;8.664;2023-11-22T01:42:45;17.67;;;8.80;;
29516;SDS011;40993;50.594;8.664;2023-11-22T01:45:13;19.85;;;9.45;;
29516;SDS011;40993;50.594;8.664;2023-11-22T01:47:41;15.57;;;9.13;;
29516;SDS011;40993;50.594;8.664;2023-11-22T01:50:11;22.30;;;9.80;;
29516;SDS011;40993;50.594;8.664;2023-11-22T01:52:41;16.73;;;8.73;;
29516;SDS011;40993;50.594;8.664;2023-11-22T01:55:09;17.33;;;9.02;;
29516;SDS011;40993;50.594;8.664;2023-11-22T01:57:37;17.00;;;8.75;;
29516;SDS011;40993;50.594;8.664;2023-11-22T02:00:05;18.13;;;9.02;;
29516;SDS011;40993;50.594;8.664;2023-11-22T02:02:40;20.77;;;9.73;;
29516;SDS011;40993;50.594;8.664;2023-11-22T02:05:09;19.65;;;8.82;;
29516;SDS011;40993;50.594;8.664;2023-11-22T02:07:39;19.42;;;9.60;;
29516;SDS011;40993;50.594;8.664;2023-11-22T02:10:08;21.33;;;9.13;;
29516;SDS011;40993;50.594;8.664;2023-11-22T02:12:35;18.63;;;9.73;;
29516;SDS011;40993;50.594;8.664;2023-11-22T02:15:04;19.27;;;8.95;;
29516;SDS011;40993;50.594;8.664;2023-11-22T02:17:32;17.27;;;8.88;;
29516;SDS011;40993;50.594;8.664;2023-11-22T02:20:02;22.08;;;9.40;;
29516;SDS011;40993;50.594;8.664;2023-11-22T02:22:32;19.50;;;9.52;;
29516;SDS011;40993;50.594;8.664;2023-11-22T02:25:02;18.63;;;9.23;;
29516;SDS011;40993;50.594;8.664;2023-11-22T02:27:30;19.23;;;9.52;;
29516;SDS011;40993;50.594;8.664;2023-11-22T02:29:58;19.00;;;9.80;;
29516;SDS011;40993;50.594;8.664;2023-11-22T02:32:26;21.42;;;9.57;;
29516;SDS011;40993;50.594;8.664;2023-11-22T02:34:54;19.13;;;10.00;;
29516;SDS011;40993;50.594;8.664;2023-11-22T02:37:22;25.00;;;10.02;;
29516;SDS011;40993;50.594;8.664;2023-11-22T02:40:02;20.75;;;10.90;;
29516;SDS011;40993;50.594;8.664;2023-11-22T02:42:36;18.83;;;9.73;;
29516;SDS011;40993;50.594;8.664;2023-11-22T02:45:05;17.55;;;9.55;;
29516;SDS011;40993;50.594;8.664;2023-11-22T02:47:34;19.98;;;8.88;;
29516;SDS011;40993;50.594;8.664;2023-11-22T02:50:02;18.27;;;8.68;;
29516;SDS011;40993;50.594;8.664;2023-11-22T02:52:31;19.55;;;8.57;;
29516;SDS011;40993;50.594;8.664;2023-11-22T02:54:59;16.15;;;8.68;;
29516;SDS011;40993;50.594;8.664;2023-11-22T02:57:28;18.77;;;9.07;;
29516;SDS011;40993;50.594;8.664;2023-11-22T02:59:57;18.08;;;9.07;;
29516;SDS011;40993;50.594;8.664;2023-11-22T03:02:25;21.15;;;9.10;;
29516;SDS011;40993;50.594;8.664;2023-11-22T03:04:53;17.17;;;8.73;;
29516;SDS011;40993;50.594;8.664;2023-11-22T03:07:21;16.35;;;8.10;;
29516;SDS011;40993;50.594;8.664;2023-11-22T03:09:48;16.42;;;8.32;;
29516;SDS011;40993;50.594;8.664;2023-11-22T03:12:17;17.90;;;8.77;;
29516;SDS011;40993;50.594;8.664;2023-11-22T03:14:47;16.38;;;7.90;;
29516;SDS011;40993;50.594;8.664;2023-11-22T03:17:15;15.48;;;8.13;;
29516;SDS011;40993;50.594;8.664;2023-11-22T03:19:44;18.35;;;8.55;;
29516;SDS011;40993;50.594;8.664;2023-11-22T03:22:12;17.38;;;7.53;;
29516;SDS011;40993;50.594;8.664;2023-11-22T03:24:40;13.77;;;6.93;;
29516;SDS011;40993;50.594;8.664;2023-11-22T03:27:08;16.48;;;7.60;;
29516;SDS011;40993;50.594;8.664;2023-11-22T03:29:37;13.45;;;7.47;;
29516;SDS011;40993;50.594;8.664;2023-11-22T03:32:07;15.55;;;7.85;;
29516;SDS011;40993;50.594;8.664;2023-11-22T03:34:34;17.30;;;7.60;;
29516;SDS011;40993;50.594;8.664;2023-11-22T03:37:03;14.25;;;7.18;;
29516;SDS011;40993;50.594;8.664;2023-11-22T03:39:31;20.45;;;7.90;;
29516;SDS011;40993;50.594;8.664;2023-11-22T03:41:59;15.68;;;7.45;;
29516;SDS011;40993;50.594;8.664;2023-11-22T03:44:26;14.57;;;7.70;;
29516;SDS011;40993;50.594;8.664;2023-11-22T03:46:57;15.75;;;8.27;;
29516;SDS011;40993;50.594;8.664;2023-11-22T03:49:26;17.52;;;7.80;;
29516;SDS011;40993;50.594;8.664;2023-11-22T03:51:53;14.30;;;7.47;;
29516;SDS011;40993;50.594;8.664;2023-11-22T03:54:22;12.77;;;7.15;;
29516;SDS011;40993;50.594;8.664;2023-11-22T03:56:50;14.57;;;7.65;;
29516;SDS011;40993;50.594;8.664;2023-11-22T03:59:18;14.27;;;7.60;;
29516;SDS011;40993;50.594;8.664;2023-11-22T04:01:46;12.82;;;7.03;;
29516;SDS011;40993;50.594;8.664;2023-11-22T04:04:12;14.65;;;7.30;;
29516;SDS011;40993;50.594;8.664;2023-11-22T04:06:41;15.45;;;7.60;;
29516;SDS011;40993;50.594;8.664;2023-11-22T04:09:09;14.82;;;6.85;;
29516;SDS011;40993;50.594;8.664;2023-11-22T04:11:38;18.60;;;7.72;;
29516;SDS011;40993;50.594;8.664;2023-11-22T04:14:06;15.57;;;8.07;;
29516;SDS011;40993;50.594;8.664;2023-11-22T04:16:34;16.70;;;8.10;;
29516;SDS011;40993;50.594;8.664;2023-11-22T04:19:02;17.65;;;8.05;;
29516;SDS011;40993;50.594;8.664;2023-11-22T04:21:31;17.65;;;7.95;;
29516;SDS011;40993;50.594;8.664;2023-11-22T04:24:00;17.60;;;7.80;;
29516;SDS011;40993;50.594;8.664;2023-11-22T04:26:28;17.65;;;8.13;;
29516;SDS011;40993;50.594;8.664;2023-11-22T04:28:56;16.10;;;8.38;;
29516;SDS011;40993;50.594;8.664;2023-11-22T04:31:24;17.83;;;7.63;;
29516;SDS011;40993;50.594;8.664;2023-11-22T04:33:52;17.85;;;8.15;;
29516;SDS011;40993;50.594;8.664;2023-11-22T04:36:20;18.73;;;8.23;;
29516;SDS011;40993;50.594;8.664;2023-11-22T04:38:51;16.85;;;8.38;;
29516;SDS011;40993;50.594;8.664;2023-11-22T04:41:20;21.38;;;8.20;;
29516;SDS011;40993;50.594;8.664;2023-11-22T04:43:49;17.70;;;8.50;;
29516;SDS011;40993;50.594;8.664;2023-11-22T04:46:16;20.50;;;8.63;;
29516;SDS011;40993;50.594;8.664;2023-11-22T04:48:44;17.85;;;8.90;;
29516;SDS011;40993;50.594;8.664;2023-11-22T04:51:14;19.55;;;9.00;;
29516;SDS011;40993;50.594;8.664;2023-11-22T04:53:42;18.33;;;8.63;;
29516;SDS011;40993;50.594;8.664;2023-11-22T04:56:10;16.77;;;8.65;;
29516;SDS011;40993;50.594;8.664;2023-11-22T04:58:40;18.75;;;8.82;;
29516;SDS011;40993;50.594;8.664;2023-11-22T05:01:07;15.93;;;8.45;;
29516;SDS011;40993;50.594;8.664;2023-11-22T05:03:37;21.42;;;9.10;;
29516;SDS011;40993;50.594;8.664;2023-11-22T05:06:05;19.92;;;8.77;;
29516;SDS011;40993;50.594;8.664;2023-11-22T05:08:33;20.65;;;9.00;;
29516;SDS011;40993;50.594;8.664;2023-11-22T05:11:01;20.30;;;9.57;;
29516;SDS011;40993;50.594;8.664;2023-11-22T05:13:30;18.77;;;9.40;;
29516;SDS011;40993;50.594;8.664;2023-11-22T05:15:59;19.23;;;9.15;;
29516;SDS011;40993;50.594;8.664;2023-11-22T05:18:27;18.00;;;9.25;;
29516;SDS011;40993;50.594;8.664;2023-11-22T05:20:55;17.02;;;9.02;;
29516;SDS011;40993;50.594;8.664;2023-11-22T05:23:22;20.40;;;9.43;;
29516;SDS011;40993;50.594;8.664;2023-11-22T05:25:50;18.45;;;9.63;;
29516;SDS011;40993;50.594;8.664;2023-11-22T05:28:18;19.70;;;9.55;;
29516;SDS011;40993;50.594;8.664;2023-11-22T05:30:46;19.92;;;9.93;;
29516;SDS011;40993;50.594;8.664;2023-11-22T05:33:15;19.88;;;9.80;;
29516;SDS011;40993;50.594;8.664;2023-11-22T05:35:43;19.52;;;10.25;;
29516;SDS011;40993;50.594;8.664;2023-11-22T05:38:11;21.35;;;10.60;;
29516;SDS011;40993;50.594;8.664;2023-11-22T05:40:39;19.38;;;10.45;;
29516;SDS011;40993;50.594;8.664;2023-11-22T05:43:09;17.65;;;9.25;;
29516;SDS011;40993;50.594;8.664;2023-11-22T05:45:38;20.73;;;9.68;;
29516;SDS011;40993;50.594;8.664;2023-11-22T05:48:06;19.17;;;9.52;;
29516;SDS011;40993;50.594;8.664;2023-11-22T05:50:35;20.25;;;10.70;;
29516;SDS011;40993;50.594;8.664;2023-11-22T05:53:03;19.60;;;9.30;;
29516;SDS011;40993;50.594;8.664;2023-11-22T05:55:31;21.23;;;10.02;;
29516;SDS011;40993;50.594;8.664;2023-11-22T05:57:59;18.52;;;10.07;;
29516;SDS011;40993;50.594;8.664;2023-11-22T06:00:26;19.20;;;9.45;;
29516;SDS011;40993;50.594;8.664;2023-11-22T06:02:54;22.90;;;10.45;;
29516;SDS011;40993;50.594;8.664;2023-11-22T06:05:22;23.05;;;10.40;;
29516;SDS011;40993;50.594;8.664;2023-11-22T06:07:52;20.98;;;10.35;;
29516;SDS011;40993;50.594;8.664;2023-11-22T06:10:20;26.92;;;10.07;;
29516;SDS011;40993;50.594;8.664;2023-11-22T06:12:49;23.15;;;10.70;;
29516;SDS011;40993;50.594;8.664;2023-11-22T06:15:17;20.95;;;10.27;;
29516;SDS011;40993;50.594;8.664;2023-11-22T06:17:47;21.45;;;10.45;;
29516;SDS011;40993;50.594;8.664;2023-11-22T06:20:15;21.45;;;11.40;;
29516;SDS011;40993;50.594;8.664;2023-11-22T06:22:43;22.23;;;11.02;;
29516;SDS011;40993;50.594;8.664;2023-11-22T06:25:12;23.77;;;11.95;;
29516;SDS011;40993;50.594;8.664;2023-11-22T06:27:40;23.63;;;11.32;;
29516;SDS011;40993;50.594;8.664;2023-11-22T06:30:08;18.92;;;10.70;;
29516;SDS011;40993;50.594;8.664;2023-11-22T06:32:36;21.98;;;11.00;;
29516;SDS011;40993;50.594;8.664;2023-11-22T06:35:04;22.50;;;10.27;;
29516;SDS011;40993;50.594;8.664;2023-11-22T06:37:35;21.65;;;11.32;;
29516;SDS011;40993;50.594;8.664;2023-11-22T06:40:03;25.70;;;10.75;;
29516;SDS011;40993;50.594;8.664;2023-11-22T06:42:33;22.05;;;10.57;;
29516;SDS011;40993;50.594;8.664;2023-11-22T06:45:00;25.08;;;11.75;;
29516;SDS011;40993;50.594;8.664;2023-11-22T06:47:28;24.65;;;10.80;;
29516;SDS011;40993;50.594;8.664;2023-11-22T06:49:56;23.25;;;11.18;;
29516;SDS011;40993;50.594;8.664;2023-11-22T06:52:24;24.20;;;11.27;;
29516;SDS011;40993;50.594;8.664;2023-11-22T06:54:52;23.95;;;11.90;;
29516;SDS011;40993;50.594;8.664;2023-11-22T06:57:20;23.48;;;12.05;;
29516;SDS011;40993;50.594;8.664;2023-11-22T06:59:55;26.25;;;11.60;;
29516;SDS011;40993;50.594;8.664;2023-11-22T07:02:23;38.47;;;11.25;;
29516;SDS011;40993;50.594;8.664;2023-11-22T07:04:51;25.98;;;11.73;;
29516;SDS011;40993;50.594;8.664;2023-11-22T07:07:19;27.88;;;12.52;;
29516;SDS011;40993;50.594;8.664;2023-11-22T07:09:47;34.95;;;14.07;;
29516;SDS011;40993;50.594;8.664;2023-11-22T07:12:15;29.80;;;14.20;;
29516;SDS011;40993;50.594;8.664;2023-11-22T07:14:43;30.77;;;13.73;;
29516;SDS011;40993;50.594;8.664;2023-11-22T07:17:12;33.25;;;13.57;;
29516;SDS011;40993;50.594;8.664;2023-11-22T07:19:41;28.95;;;14.15;;
29516;SDS011;40993;50.594;8.664;2023-11-22T07:22:13;28.95;;;13.18;;
29516;SDS011;40993;50.594;8.664;2023-11-22T07:24:43;28.20;;;12.68;;
29516;SDS011;40993;50.594;8.664;2023-11-22T07:27:11;25.90;;;11.75;;
29516;SDS011;40993;50.594;8.664;2023-11-22T07:29:39;29.73;;;12.75;;
29516;SDS011;40993;50.594;8.664;2023-11-22T07:32:08;24.17;;;12.57;;
29516;SDS011;40993;50.594;8.664;2023-11-22T07:34:37;27.15;;;12.93;;
29516;SDS011;40993;50.594;8.664;2023-11-22T07:37:07;29.50;;;13.27;;
29516;SDS011;40993;50.594;8.664;2023-11-22T07:39:35;29.70;;;12.82;;
29516;SDS011;40993;50.594;8.664;2023-11-22T07:42:04;24.48;;;12.80;;
29516;SDS011;40993;50.594;8.664;2023-11-22T07:44:34;26.75;;;13.63;;
29516;SDS011;40993;50.594;8.664;2023-11-22T07:47:04;28.83;;;12.13;;
29516;SDS011;40993;50.594;8.664;2023-11-22T07:49:34;23.92;;;11.90;;
29516;SDS011;40993;50.594;8.664;2023-11-22T07:52:06;22.00;;;11.57;;
29516;SDS011;40993;50.594;8.664;2023-11-22T07:54:33;21.80;;;11.35;;
29516;SDS011;40993;50.594;8.664;2023-11-22T07:57:02;21.38;;;11.00;;
29516;SDS011;40993;50.594;8.664;2023-11-22T07:59:30;20.25;;;10.85;;
29516;SDS011;40993;50.594;8.664;2023-11-22T08:01:58;19.42;;;10.38;;
29516;SDS011;40993;50.594;8.664;2023-11-22T08:04:27;20.60;;;10.25;;
29516;SDS011;40993;50.594;8.664;2023-11-22T08:06:58;22.20;;;10.25;;
29516;SDS011;40993;50.594;8.664;2023-11-22T08:09:29;18.77;;;10.75;;
29516;SDS011;40993;50.594;8.664;2023-11-22T08:11:58;19.73;;;10.77;;
29516;SDS011;40993;50.594;8.664;2023-11-22T08:14:27;19.50;;;9.57;;
29516;SDS011;40993;50.594;8.664;2023-11-22T08:16:56;16.88;;;9.88;;
29516;SDS011;40993;50.594;8.664;2023-11-22T08:19:24;17.02;;;9.23;;
29516;SDS011;40993;50.594;8.664;2023-11-22T08:21:53;17.05;;;9.18;;
29516;SDS011;40993;50.594;8.664;2023-11-22T08:24:21;16.40;;;8.63;;
29516;SDS011;40993;50.594;8.664;2023-11-22T08:26:50;15.82;;;8.80;;
29516;SDS011;40993;50.594;8.664;2023-11-22T08:29:18;17.08;;;9.20;;
29516;SDS011;40993;50.594;8.664;2023-11-22T08:31:46;17.10;;;8.80;;
29516;SDS011;40993;50.594;8.664;2023-11-22T08:34:16;17.20;;;8.43;;
29516;SDS011;40993;50.594;8.664;2023-11-22T08:36:44;17.50;;;9.25;;
29516;SDS011;40993;50.594;8.664;2023-11-22T08:39:12;17.88;;;9.60;;
29516;SDS011;40993;50.594;8.664;2023-11-22T08:41:40;16.80;;;9.00;;
29516;SDS011;40993;50.594;8.664;2023-11-22T08:44:09;14.18;;;8.43;;
29516;SDS011;40993;50.594;8.664;2023-11-22T08:46:37;14.00;;;8.55;;
29516;SDS011;40993;50.594;8.664;2023-11-22T08:49:05;16.90;;;9.32;;
29516;SDS011;40993;50.594;8.664;2023-11-22T08:51:33;16.15;;;9.10;;
29516;SDS011;40993;50.594;8.664;2023-11-22T08:54:01;14.50;;;8.70;;
29516;SDS011;40993;50.594;8.664;2023-11-22T08:56:29;13.80;;;8.43;;
29516;SDS011;40993;50.594;8.664;2023-11-22T08:58:56;15.93;;;8.98;;
29516;SDS011;40993;50.594;8.664;2023-11-22T09:01:26;16.00;;;8.95;;
29516;SDS011;40993;50.594;8.664;2023-11-22T09:03:53;14.80;;;8.70;;
29516;SDS011;40993;50.594;8.664;2023-11-22T09:06:23;13.60;;;8.45;;
29516;SDS011;40993;50.594;8.664;2023-11-22T09:08:51;13.88;;;8.35;;
29516;SDS011;40993;50.594;8.664;2023-11-22T09:11:19;15.10;;;8.10;;
29516;SDS011;40993;50.594;8.664;2023-11-22T09:13:49;16.58;;;8.27;;
29516;SDS011;40993;50.594;8.664;2023-11-22T09:16:17;12.60;;;7.97;;
29516;SDS011;40993;50.594;8.664;2023-11-22T09:18:47;13.95;;;8.15;;
29516;SDS011;40993;50.594;8.664;2023-11-22T09:21:15;13.32;;;7.60;;
29516;SDS011;40993;50.594;8.664;2023-11-22T09:23:43;14.30;;;7.35;;
29516;SDS011;40993;50.594;8.664;2023-11-22T09:26:11;11.38;;;7.10;;
29516;SDS011;40993;50.594;8.664;2023-11-22T09:28:39;11.82;;;7.10;;
29516;SDS011;40993;50.594;8.664;2023-11-22T09:31:07;12.38;;;7.20;;
29516;SDS011;40993;50.594;8.664;2023-11-22T09:33:37;9.52;;;6.78;;
29516;SDS011;40993;50.594;8.664;2023-11-22T09:36:07;10.77;;;7.03;;
29516;SDS011;40993;50.594;8.664;2023-11-22T09:38:37;13.27;;;7.13;;
29516;SDS011;40993;50.594;8.664;2023-11-22T09:41:05;12.55;;;8.15;;
29516;SDS011;40993;50.594;8.664;2023-11-22T09:43:34;11.80;;;7.82;;
29516;SDS011;40993;50.594;8.664;2023-11-22T09:46:01;9.88;;;6.40;;
29516;SDS011;40993;50.594;8.664;2023-11-22T09:48:31;10.43;;;6.88;;
29516;SDS011;40993;50.594;8.664;2023-11-22T09:51:01;13.10;;;7.28;;
29516;SDS011;40993;50.594;8.664;2023-11-22T09:53:33;13.18;;;7.20;;
29516;SDS011;40993;50.594;8.664;2023-11-22T09:56:03;14.27;;;7.78;;
29516;SDS011;40993;50.594;8.664;2023-11-22T09:58:33;13.73;;;7.63;;
29516;SDS011;40993;50.594;8.664;2023-11-22T10:01:03;11.25;;;7.38;;
29516;SDS011;40993;50.594;8.664;2023-11-22T10:03:31;13.75;;;7.28;;
29516;SDS011;40993;50.594;8.664;2023-11-22T10:05:59;11.27;;;7.35;;
29516;SDS011;40993;50.594;8.664;2023-11-22T10:08:27;15.25;;;7.60;;
29516;SDS011;40993;50.594;8.664;2023-11-22T10:10:57;10.00;;;6.78;;
29516;SDS011;40993;50.594;8.664;2023-11-22T10:13:25;10.02;;;6.63;;
29516;SDS011;40993;50.594;8.664;2023-11-22T10:15:54;9.82;;;6.72;;
29516;SDS011;40993;50.594;8.664;2023-11-22T10:18:21;9.60;;;6.35;;
29516;SDS011;40993;50.594;8.664;2023-11-22T10:20:51;8.88;;;6.15;;
29516;SDS011;40993;50.594;8.664;2023-11-22T10:23:19;9.32;;;6.50;;
29516;SDS011;40993;50.594;8.664;2023-11-22T10:25:52;9.85;;;6.68;;
29516;SDS011;40993;50.594;8.664;2023-11-22T10:28:22;7.88;;;5.90;;
29516;SDS011;40993;50.594;8.664;2023-11-22T10:30:50;9.63;;;6.32;;
29516;SDS011;40993;50.594;8.664;2023-11-22T10:33:18;11.60;;;6.35;;
29516;SDS011;40993;50.594;8.664;2023-11-22T10:35:50;9.20;;;6.13;;
29516;SDS011;40993;50.594;8.664;2023-11-22T10:38:19;8.50;;;5.97;;
29516;SDS011;40993;50.594;8.664;2023-11-22T10:40:47;8.00;;;6.05;;
29516;SDS011;40993;50.594;8.664;2023-11-22T10:43:18;8.68;;;6.22;;
29516;SDS011;40993;50.594;8.664;2023-11-22T10:45:52;8.48;;;6.32;;
29516;SDS011;40993;50.594;8.664;2023-11-22T10:48:22;8.20;;;6.03;;
29516;SDS011;40993;50.594;8.664;2023-11-22T10:50:51;8.43;;;5.80;;
29516;SDS011;40993;50.594;8.664;2023-11-22T10:53:21;7.88;;;5.43;;
29516;SDS011;40993;50.594;8.664;2023-11-22T10:55:53;8.07;;;5.63;;
29516;SDS011;40993;50.594;8.664;2023-11-22T10:58:24;5.22;;;4.20;;
29516;SDS011;40993;50.594;8.664;2023-11-22T11:00:56;9.25;;;5.80;;
29516;SDS011;40993;50.594;8.664;2023-11-22T11:03:24;7.88;;;5.88;;
29516;SDS011;40993;50.594;8.664;2023-11-22T11:05:57;7.50;;;5.30;;
29516;SDS011;40993;50.594;8.664;2023-11-22T11:08:27;8.45;;;5.90;;
29516;SDS011;40993;50.594;8.664;2023-11-22T11:10:56;7.00;;;5.30;;
29516;SDS011;40993;50.594;8.664;2023-11-22T11:13:26;8.95;;;5.22;;
29516;SDS011;40993;50.594;8.664;2023-11-22T11:15:54;7.60;;;5.50;;
29516;SDS011;40993;50.594;8.664;2023-11-22T11:18:24;11.05;;;5.82;;
29516;SDS011;40993;50.594;8.664;2023-11-22T11:20:55;9.65;;;5.63;;
29516;SDS011;40993;50.594;8.664;2023-11-22T11:23:24;8.77;;;6.05;;
29516;SDS011;40993;50.594;8.664;2023-11-22T11:25:53;12.93;;;6.00;;
29516;SDS011;40993;50.594;8.664;2023-11-22T11:28:21;7.72;;;5.72;;
29516;SDS011;40993;50.594;8.664;2023-11-22T11:30:52;7.97;;;5.75;;
29516;SDS011;40993;50.594;8.664;2023-11-22T11:33:27;7.45;;;5.80;;
29516;SDS011;40993;50.594;8.664;2023-11-22T11:36:00;8.18;;;5.97;;
29516;SDS011;40993;50.594;8.664;2023-11-22T11:38:30;10.75;;;5.88;;
29516;SDS011;40993;50.594;8.664;2023-11-22T11:41:05;9.27;;;5.63;;
29516;SDS011;40993;50.594;8.664;2023-11-22T11:43:40;9.25;;;6.32;;
29516;SDS011;40993;50.594;8.664;2023-11-22T11:46:10;6.82;;;5.50;;
29516;SDS011;40993;50.594;8.664;2023-11-22T11:48:43;7.28;;;5.30;;
29516;SDS011;40993;50.594;8.664;2023-11-22T11:51:13;8.05;;;4.80;;
29516;SDS011;40993;50.594;8.664;2023-11-22T11:53:41;7.03;;;5.13;;
29516;SDS011;40993;50.594;8.664;2023-11-22T11:56:09;8.27;;;5.70;;
29516;SDS011;40993;50.594;8.664;2023-11-22T11:58:37;7.75;;;5.35;;
29516;SDS011;40993;50.594;8.664;2023-11-22T12:01:05;6.95;;;5.20;;
29516;SDS011;40993;50.594;8.664;2023-11-22T12:03:39;9.48;;;5.18;;
29516;SDS011;40993;50.594;8.664;2023-11-22T12:08:36;7.82;;;5.05;;
29516;SDS011;40993;50.594;8.664;2023-11-22T12:11:04;8.82;;;5.05;;
29516;SDS011;40993;50.594;8.664;2023-11-22T12:13:34;8.88;;;5.40;;
29516;SDS011;40993;50.594;8.664;2023-11-22T12:16:04;6.82;;;5.40;;
29516;SDS011;40993;50.594;8.664;2023-11-22T12:18:40;9.75;;;5.90;;
29516;SDS011;40993;50.594;8.664;2023-11-22T12:21:10;8.45;;;5.40;;
29516;SDS011;40993;50.594;8.664;2023-11-22T12:23:39;8.40;;;5.47;;
29516;SDS011;40993;50.594;8.664;2023-11-22T12:26:09;10.45;;;5.90;;
29516;SDS011;40993;50.594;8.664;2023-11-22T12:28:38;8.98;;;5.35;;
29516;SDS011;40993;50.594;8.664;2023-11-22T12:31:18;10.40;;;5.78;;
29516;SDS011;40993;50.594;8.664;2023-11-22T12:33:46;10.38;;;5.90;;
29516;SDS011;40993;50.594;8.664;2023-11-22T12:36:19;9.38;;;5.80;;
29516;SDS011;40993;50.594;8.664;2023-11-22T12:38:47;8.77;;;5.50;;
29516;SDS011;40993;50.594;8.664;2023-11-22T12:41:15;8.82;;;5.50;;
29516;SDS011;40993;50.594;8.664;2023-11-22T12:43:44;9.38;;;5.75;;
29516;SDS011;40993;50.594;8.664;2023-11-22T12:46:34;9.48;;;5.65;;
29516;SDS011;40993;50.594;8.664;2023-11-22T12:49:12;7.80;;;5.18;;
29516;SDS011;40993;50.594;8.664;2023-11-22T12:51:46;10.85;;;5.38;;
29516;SDS011;40993;50.594;8.664;2023-11-22T12:54:14;8.93;;;5.07;;
29516;SDS011;40993;50.594;8.664;2023-11-22T12:56:42;10.60;;;6.38;;
29516;SDS011;40993;50.594;8.664;2023-11-22T12:59:10;11.07;;;6.28;;
29516;SDS011;40993;50.594;8.664;2023-11-22T13:01:38;9.00;;;5.97;;
29516;SDS011;40993;50.594;8.664;2023-11-22T13:04:06;10.75;;;6.05;;
29516;SDS011;40993;50.594;8.664;2023-11-22T13:06:35;10.70;;;6.13;;
29516;SDS011;40993;50.594;8.664;2023-11-22T13:09:04;12.80;;;6.53;;
29516;SDS011;40993;50.594;8.664;2023-11-22T13:11:33;11.93;;;6.45;;
29516;SDS011;40993;50.594;8.664;2023-11-22T13:14:01;12.43;;;6.95;;
29516;SDS011;40993;50.594;8.664;2023-11-22T13:16:28;14.43;;;7.45;;
29516;SDS011;40993;50.594;8.664;2023-11-22T13:18:56;10.68;;;6.40;;
29516;SDS011;40993;50.594;8.664;2023-11-22T13:21:24;11.90;;;6.53;;
29516;SDS011;40993;50.594;8.664;2023-11-22T13:23:52;11.98;;;6.70;;
29516;SDS011;40993;50.594;8.664;2023-11-22T13:26:23;17.65;;;7.65;;
29516;SDS011;40993;50.594;8.664;2023-11-22T13:28:51;12.82;;;6.90;;
29516;SDS011;40993;50.594;8.664;2023-11-22T13:31:20;12.70;;;6.60;;
29516;SDS011;40993;50.594;8.664;2023-11-22T13:33:48;12.27;;;7.20;;
29516;SDS011;40993;50.594;8.664;2023-11-22T13:36:16;13.55;;;7.20;;
29516;SDS011;40993;50.594;8.664;2023-11-22T13:38:44;13.90;;;7.45;;
29516;SDS011;40993;50.594;8.664;2023-11-22T13:41:12;14.88;;;8.38;;
29516;SDS011;40993;50.594;8.664;2023-11-22T13:43:41;17.48;;;8.43;;
29516;SDS011;40993;50.594;8.664;2023-11-22T13:46:09;13.50;;;7.57;;
29516;SDS011;40993;50.594;8.664;2023-11-22T13:48:38;16.63;;;9.15;;
29516;SDS011;40993;50.594;8.664;2023-11-22T13:51:06;17.65;;;8.52;;
29516;SDS011;40993;50.594;8.664;2023-11-22T13:53:37;19.70;;;10.40;;
29516;SDS011;40993;50.594;8.664;2023-11-22T13:56:10;16.25;;;8.65;;
29516;SDS011;40993;50.594;8.664;2023-11-22T13:58:40;17.50;;;8.38;;
29516;SDS011;40993;50.594;8.664;2023-11-22T14:01:08;16.88;;;8.40;;
29516;SDS011;40993;50.594;8.664;2023-11-22T14:03:41;17.35;;;9.50;;
29516;SDS011;40993;50.594;8.664;2023-11-22T14:06:09;17.25;;;8.98;;
29516;SDS011;40993;50.594;8.664;2023-11-22T14:08:39;17.52;;;8.90;;
29516;SDS011;40993;50.594;8.664;2023-11-22T14:11:07;20.45;;;10.15;;
29516;SDS011;40993;50.594;8.664;2023-11-22T14:13:35;25.45;;;10.98;;
29516;SDS011;40993;50.594;8.664;2023-11-22T14:16:04;17.63;;;9.40;;
29516;SDS011;40993;50.594;8.664;2023-11-22T14:18:33;14.77;;;8.65;;
29516;SDS011;40993;50.594;8.664;2023-11-22T14:21:01;17.23;;;9.45;;
29516;SDS011;40993;50.594;8.664;2023-11-22T14:23:30;20.23;;;10.30;;
29516;SDS011;40993;50.594;8.664;2023-11-22T14:25:59;17.60;;;8.55;;
29516;SDS011;40993;50.594;8.664;2023-11-22T14:28:27;18.42;;;8.95;;
29516;SDS011;40993;50.594;8.664;2023-11-22T14:30:56;18.75;;;8.07;;
29516;SDS011;40993;50.594;8.664;2023-11-22T14:33:25;14.90;;;8.05;;
29516;SDS011;40993;50.594;8.664;2023-11-22T14:35:56;14.05;;;7.57;;
29516;SDS011;40993;50.594;8.664;2023-11-22T14:38:25;22.35;;;8.90;;
29516;SDS011;40993;50.594;8.664;2023-11-22T14:40:53;18.40;;;8.90;;
29516;SDS011;40993;50.594;8.664;2023-11-22T14:43:21;20.55;;;8.73;;
29516;SDS011;40993;50.594;8.664;2023-11-22T14:45:49;14.90;;;8.32;;